createdAt,value
2022-10-13T00:00:45.267Z,8.50
2022-10-13T00:03:12.455Z,8.50
2022-10-13T00:05:46.566Z,8.50
2022-10-13T00:08:13.857Z,8.40
2022-10-13T00:10:45.751Z,8.40
2022-10-13T00:13:12.974Z,8.40
2022-10-13T00:15:40.528Z,8.40
2022-10-13T00:18:07.654Z,8.40
2022-10-13T00:20:34.882Z,8.50
2022-10-13T00:23:01.898Z,8.40
2022-10-13T00:25:28.961Z,8.50
2022-10-13T00:27:55.970Z,8.50
2022-10-13T00:30:28.512Z,8.40
2022-10-13T00:32:55.503Z,8.30
2022-10-13T00:35:22.519Z,8.30
2022-10-13T00:37:49.534Z,8.30
2022-10-13T00:40:16.619Z,8.30
2022-10-13T00:42:43.629Z,8.30
2022-10-13T00:45:13.924Z,8.30
2022-10-13T00:47:41.819Z,8.40
2022-10-13T00:50:12.853Z,8.40
2022-10-13T00:52:39.894Z,8.50
2022-10-13T00:55:07.947Z,8.40
2022-10-13T00:57:35.076Z,8.50
2022-10-13T01:00:02.123Z,8.50
2022-10-13T01:02:29.822Z,8.50
2022-10-13T01:04:57.844Z,8.40
2022-10-13T01:07:24.934Z,8.40
2022-10-13T01:09:51.967Z,8.40
2022-10-13T01:12:19.126Z,8.40
2022-10-13T01:14:51.947Z,8.30
2022-10-13T01:17:30.722Z,8.30
2022-10-13T01:20:16.378Z,8.30
2022-10-13T01:23:02.239Z,8.30
2022-10-13T01:25:38.483Z,8.30
2022-10-13T01:28:13.414Z,8.30
2022-10-13T01:30:43.422Z,8.30
2022-10-13T01:33:26.376Z,8.30
2022-10-13T01:35:59.542Z,8.30
2022-10-13T01:38:35.858Z,8.20
2022-10-13T01:41:02.853Z,8.10
2022-10-13T01:43:37.362Z,8.00
2022-10-13T01:46:24.725Z,8.00
2022-10-13T01:48:51.862Z,8.00
2022-10-13T01:51:19.218Z,8.00
2022-10-13T01:53:47.660Z,8.00
2022-10-13T01:56:14.734Z,8.00
2022-10-13T01:58:41.949Z,7.90
2022-10-13T02:01:21.294Z,7.90
2022-10-13T02:04:07.098Z,7.90
2022-10-13T02:06:48.043Z,7.90
2022-10-13T02:09:28.670Z,7.90
2022-10-13T02:12:05.622Z,7.80
2022-10-13T02:14:33.595Z,7.90
2022-10-13T02:17:01.634Z,7.70
2022-10-13T02:19:28.647Z,7.70
2022-10-13T02:21:56.223Z,7.60
2022-10-13T02:24:23.270Z,7.60
2022-10-13T02:26:50.350Z,7.60
2022-10-13T02:29:19.487Z,7.60
2022-10-13T02:31:46.722Z,7.60
2022-10-13T02:34:13.896Z,7.70
2022-10-13T02:36:41.084Z,7.80
2022-10-13T02:39:08.762Z,7.90
2022-10-13T02:41:35.758Z,8.00
2022-10-13T02:44:02.790Z,8.10
2022-10-13T02:46:34.626Z,8.20
2022-10-13T02:49:01.703Z,8.10
2022-10-13T02:51:29.103Z,8.10
2022-10-13T02:53:56.153Z,8.20
2022-10-13T02:56:23.291Z,8.20
2022-10-13T02:58:50.315Z,8.20
2022-10-13T03:01:17.331Z,8.20
2022-10-13T03:03:44.377Z,8.10
2022-10-13T03:06:11.386Z,8.10
2022-10-13T03:08:38.390Z,8.10
2022-10-13T03:11:05.497Z,8.10
2022-10-13T03:13:32.502Z,8.20
2022-10-13T03:16:06.579Z,8.20
2022-10-13T03:18:33.637Z,8.20
2022-10-13T03:21:01.515Z,8.20
2022-10-13T03:23:28.553Z,8.30
2022-10-13T03:25:55.693Z,8.20
2022-10-13T03:28:22.880Z,8.20
2022-10-13T03:30:51.339Z,8.30
2022-10-13T03:33:18.370Z,8.30
2022-10-13T03:35:45.403Z,8.20
2022-10-13T03:38:12.523Z,8.20
2022-10-13T03:40:39.541Z,8.30
2022-10-13T03:43:06.537Z,8.30
2022-10-13T03:45:33.559Z,8.20
2022-10-13T03:48:00.562Z,8.20
2022-10-13T03:50:27.667Z,8.20
2022-10-13T03:52:54.933Z,8.30
2022-10-13T03:55:21.958Z,8.20
2022-10-13T03:57:48.954Z,8.20
2022-10-13T04:00:16.158Z,8.20
2022-10-13T04:02:43.175Z,8.30
2022-10-13T04:05:10.442Z,8.30
2022-10-13T04:07:37.553Z,8.30
2022-10-13T04:10:12.098Z,8.30
2022-10-13T04:12:40.435Z,8.40
2022-10-13T04:15:07.852Z,8.50
2022-10-13T04:17:34.885Z,8.50
2022-10-13T04:20:01.922Z,8.60
2022-10-13T04:22:28.927Z,8.70
2022-10-13T04:24:55.939Z,8.70
2022-10-13T04:27:24.454Z,8.70
2022-10-13T04:29:51.475Z,8.80
2022-10-13T04:32:18.865Z,8.90
2022-10-13T04:34:46.103Z,8.90
2022-10-13T04:37:13.118Z,8.90
2022-10-13T04:39:40.187Z,9.00
2022-10-13T04:42:07.197Z,9.10
2022-10-13T04:44:38.037Z,9.10
2022-10-13T04:47:07.241Z,9.10
2022-10-13T04:49:34.302Z,9.20
2022-10-13T04:52:01.358Z,9.20
2022-10-13T04:54:28.356Z,9.30
2022-10-13T04:56:55.556Z,9.30
2022-10-13T04:59:22.551Z,9.30
2022-10-13T05:01:49.744Z,9.40
2022-10-13T05:04:16.754Z,9.40
2022-10-13T05:09:30.750Z,9.50
2022-10-13T05:11:57.837Z,9.60
2022-10-13T05:14:24.888Z,9.60
2022-10-13T05:16:51.924Z,9.60
2022-10-13T05:19:18.958Z,9.70
2022-10-13T05:21:46.007Z,9.70
2022-10-13T05:24:13.375Z,9.70
2022-10-13T05:26:41.041Z,9.80
2022-10-13T05:29:08.196Z,9.80
2022-10-13T05:31:35.406Z,9.90
2022-10-13T05:34:02.433Z,9.90
2022-10-13T05:36:30.869Z,9.90
2022-10-13T05:39:04.860Z,10.00
2022-10-13T05:41:31.994Z,10.00
2022-10-13T05:44:00.396Z,10.10
2022-10-13T05:46:27.487Z,10.10
2022-10-13T05:48:54.561Z,10.20
2022-10-13T05:51:27.004Z,10.20
2022-10-13T05:54:03.298Z,10.30
2022-10-13T05:56:31.320Z,10.30
2022-10-13T05:59:02.579Z,10.30
2022-10-13T06:01:30.990Z,10.40
2022-10-13T06:03:58.942Z,10.40
2022-10-13T06:06:31.135Z,10.40
2022-10-13T06:08:58.837Z,10.50
2022-10-13T06:11:25.844Z,10.50
2022-10-13T06:13:52.874Z,10.60
2022-10-13T06:16:19.897Z,10.70
2022-10-13T06:18:46.897Z,10.70
2022-10-13T06:21:13.940Z,10.80
2022-10-13T06:23:40.966Z,10.90
2022-10-13T06:26:08.972Z,10.90
2022-10-13T06:28:37.370Z,11.00
2022-10-13T06:31:05.239Z,11.00
2022-10-13T06:33:32.532Z,11.10
2022-10-13T06:36:05.867Z,11.20
2022-10-13T06:38:33.023Z,11.20
2022-10-13T06:41:00.997Z,11.30
2022-10-13T06:43:38.668Z,11.30
2022-10-13T06:46:09.898Z,11.40
2022-10-13T06:48:36.939Z,11.50
2022-10-13T06:51:07.891Z,11.50
2022-10-13T06:53:35.133Z,11.50
2022-10-13T06:56:02.517Z,11.50
2022-10-13T06:58:29.595Z,11.50
2022-10-13T07:00:56.797Z,11.50
2022-10-13T07:03:25.024Z,11.50
2022-10-13T07:05:52.149Z,11.50
2022-10-13T07:08:19.300Z,11.60
2022-10-13T07:10:46.481Z,11.60
2022-10-13T07:13:13.570Z,11.70
2022-10-13T07:15:40.703Z,11.70
2022-10-13T07:18:07.750Z,11.80
2022-10-13T07:20:34.748Z,11.90
2022-10-13T07:23:01.858Z,12.00
2022-10-13T07:25:28.994Z,12.00
2022-10-13T07:27:55.993Z,12.00
2022-10-13T07:30:22.989Z,12.10
2022-10-13T07:32:50.060Z,12.10
2022-10-13T07:35:17.321Z,12.10
2022-10-13T07:37:44.415Z,12.10
2022-10-13T07:40:11.571Z,12.10
2022-10-13T07:42:38.588Z,12.00
2022-10-13T07:45:06.055Z,12.00
2022-10-13T07:47:33.106Z,12.10
2022-10-13T07:50:00.136Z,12.10
2022-10-13T07:52:27.353Z,12.10
2022-10-13T07:54:55.705Z,12.00
2022-10-13T07:57:25.839Z,12.10
2022-10-13T07:59:53.111Z,12.10
2022-10-13T08:02:20.541Z,12.10
2022-10-13T08:04:47.881Z,12.10
2022-10-13T08:07:16.354Z,12.10
2022-10-13T08:09:43.843Z,12.10
2022-10-13T08:12:11.024Z,12.20
2022-10-13T08:14:38.236Z,12.30
2022-10-13T08:17:05.348Z,12.30
2022-10-13T08:19:32.536Z,12.30
2022-10-13T08:22:00.295Z,12.30
2022-10-13T08:24:27.759Z,12.30
2022-10-13T08:26:54.814Z,12.20
2022-10-13T08:29:23.454Z,12.30
2022-10-13T08:31:52.022Z,12.30
2022-10-13T08:34:19.426Z,12.20
2022-10-13T08:36:47.231Z,12.20
2022-10-13T08:39:14.322Z,12.30
2022-10-13T08:41:43.852Z,12.30
2022-10-13T08:47:10.214Z,12.40
2022-10-13T08:49:37.238Z,12.50
2022-10-13T08:52:05.918Z,12.60
2022-10-13T08:54:33.330Z,12.70
2022-10-13T08:59:28.333Z,12.80
2022-10-13T09:01:55.556Z,13.00
2022-10-13T09:04:25.770Z,13.20
2022-10-13T09:06:58.893Z,13.30
2022-10-13T09:09:25.909Z,13.20
2022-10-13T09:11:53.103Z,13.40
2022-10-13T09:14:21.978Z,13.50
2022-10-13T09:16:49.099Z,13.40
2022-10-13T09:19:27.006Z,13.50
2022-10-13T09:21:55.135Z,13.70
2022-10-13T09:24:22.441Z,13.90
2022-10-13T09:26:50.174Z,14.00
2022-10-13T09:29:18.570Z,14.20
2022-10-13T09:31:45.653Z,14.20
2022-10-13T09:34:14.541Z,14.20
2022-10-13T09:36:57.458Z,14.40
2022-10-13T09:39:24.515Z,14.40
2022-10-13T09:41:52.177Z,14.30
2022-10-13T09:44:27.682Z,14.40
2022-10-13T09:46:55.470Z,14.50
2022-10-13T09:49:23.844Z,14.50
2022-10-13T09:51:50.929Z,14.40
2022-10-13T09:54:28.536Z,14.30
2022-10-13T09:57:02.909Z,14.20
2022-10-13T09:59:46.202Z,14.30
2022-10-13T10:02:26.594Z,14.30
2022-10-13T10:04:54.896Z,14.20
2022-10-13T10:07:23.101Z,14.20
2022-10-13T10:09:54.890Z,14.00
2022-10-13T10:12:27.557Z,14.10
2022-10-13T10:14:54.952Z,14.10
2022-10-13T10:17:41.402Z,14.20
2022-10-13T10:20:08.447Z,14.40
2022-10-13T10:22:35.639Z,14.80
2022-10-13T10:25:14.862Z,15.00
2022-10-13T10:27:43.785Z,15.10
2022-10-13T10:30:14.872Z,15.00
2022-10-13T10:32:44.922Z,15.20
2022-10-13T10:35:12.902Z,15.40
2022-10-13T10:37:50.376Z,15.60
2022-10-13T10:40:30.567Z,15.90
2022-10-13T10:42:57.780Z,15.70
2022-10-13T10:45:25.479Z,15.70
2022-10-13T10:47:56.753Z,15.70
2022-10-13T10:50:26.883Z,15.90
2022-10-13T10:52:56.407Z,15.80
2022-10-13T10:55:38.652Z,16.00
2022-10-13T10:58:19.751Z,16.00
2022-10-13T11:01:07.086Z,15.70
2022-10-13T11:03:48.393Z,16.00
2022-10-13T11:06:15.392Z,16.10
2022-10-13T11:08:43.170Z,16.20
2022-10-13T11:11:24.722Z,16.40
2022-10-13T11:13:54.431Z,16.50
2022-10-13T11:16:24.562Z,16.50
2022-10-13T11:18:54.651Z,16.20
2022-10-13T11:21:25.304Z,16.00
2022-10-13T11:23:52.356Z,16.00
2022-10-13T11:26:29.425Z,16.10
2022-10-13T11:28:56.575Z,16.30
2022-10-13T11:31:47.254Z,16.10
2022-10-13T11:34:27.659Z,16.20
2022-10-13T11:36:55.559Z,16.40
2022-10-13T11:39:28.670Z,16.40
2022-10-13T11:42:07.890Z,16.20
2022-10-13T11:44:40.941Z,16.10
2022-10-13T11:47:21.310Z,16.40
2022-10-13T11:49:55.993Z,16.50
2022-10-13T11:52:26.084Z,16.60
2022-10-13T11:55:12.503Z,16.70
2022-10-13T11:57:41.876Z,17.00
2022-10-13T12:00:19.803Z,17.00
2022-10-13T12:02:50.705Z,16.80
2022-10-13T12:05:24.007Z,16.60
2022-10-13T12:07:51.610Z,16.50
2022-10-13T12:10:23.073Z,16.40
2022-10-13T12:12:50.199Z,16.40
2022-10-13T12:15:28.458Z,16.40
2022-10-13T12:17:55.610Z,16.50
2022-10-13T12:20:24.744Z,16.50
2022-10-13T12:22:52.038Z,16.40
2022-10-13T12:25:19.626Z,16.60
2022-10-13T12:27:53.898Z,16.50
2022-10-13T12:30:22.190Z,16.80
2022-10-13T12:32:50.306Z,17.10
2022-10-13T12:35:24.942Z,17.20
2022-10-13T12:37:52.022Z,17.30
2022-10-13T12:40:19.059Z,17.30
2022-10-13T12:42:46.273Z,17.00
2022-10-13T12:45:17.448Z,16.70
2022-10-13T12:47:44.443Z,16.80
2022-10-13T12:50:23.632Z,16.70
2022-10-13T12:53:04.267Z,16.50
2022-10-13T12:55:31.386Z,16.60
2022-10-13T12:57:58.395Z,16.80
2022-10-13T13:00:26.751Z,17.00
2022-10-13T13:02:54.810Z,17.00
2022-10-13T13:05:37.051Z,17.10
2022-10-13T13:08:04.789Z,17.20
2022-10-13T13:10:31.986Z,17.10
2022-10-13T13:13:12.284Z,17.10
2022-10-13T13:15:40.725Z,17.30
2022-10-13T13:18:23.106Z,17.40
2022-10-13T13:20:50.122Z,17.20
2022-10-13T13:23:19.277Z,17.30
2022-10-13T13:25:46.645Z,17.10
2022-10-13T13:28:14.644Z,17.10
2022-10-13T13:30:41.991Z,17.00
2022-10-13T13:33:09.035Z,16.80
2022-10-13T13:35:36.655Z,16.60
2022-10-13T13:38:03.723Z,16.60
2022-10-13T13:40:31.492Z,16.70
2022-10-13T13:42:58.644Z,17.00
2022-10-13T13:45:31.303Z,17.10
2022-10-13T13:48:00.815Z,17.20
2022-10-13T13:50:30.852Z,17.30
2022-10-13T13:52:58.124Z,17.20
2022-10-13T13:55:25.655Z,17.20
2022-10-13T13:57:52.729Z,17.10
2022-10-13T14:00:19.805Z,17.00
2022-10-13T14:02:50.563Z,16.90
2022-10-13T14:05:17.648Z,17.10
2022-10-13T14:07:44.658Z,17.00
2022-10-13T14:10:12.005Z,17.20
2022-10-13T14:12:39.114Z,17.20
2022-10-13T14:15:06.435Z,17.10
2022-10-13T14:17:33.494Z,17.00
2022-10-13T14:20:00.650Z,16.80
2022-10-13T14:22:27.742Z,16.70
2022-10-13T14:24:54.791Z,16.80
2022-10-13T14:27:21.909Z,16.70
2022-10-13T14:29:48.940Z,16.60
2022-10-13T14:32:15.968Z,16.50
2022-10-13T14:34:43.007Z,16.60
2022-10-13T14:37:10.072Z,16.60
2022-10-13T14:39:37.322Z,16.90
2022-10-13T14:42:04.366Z,17.00
2022-10-13T14:44:31.370Z,17.20
2022-10-13T14:46:58.393Z,17.30
2022-10-13T14:49:25.995Z,17.30
2022-10-13T14:51:53.018Z,17.40
2022-10-13T14:54:20.055Z,17.30
2022-10-13T14:56:47.099Z,17.40
2022-10-13T14:59:14.203Z,17.30
2022-10-13T15:01:42.104Z,17.30
2022-10-13T15:04:09.281Z,17.10
2022-10-13T15:06:39.208Z,17.20
2022-10-13T15:09:06.762Z,17.00
2022-10-13T15:11:33.827Z,17.00
2022-10-13T15:14:00.877Z,17.00
2022-10-13T15:16:28.795Z,17.00
2022-10-13T15:18:56.070Z,16.80
2022-10-13T15:21:23.246Z,16.90
2022-10-13T15:23:50.250Z,16.90
2022-10-13T15:26:17.787Z,16.80
2022-10-13T15:28:45.706Z,16.70
2022-10-13T15:31:14.098Z,16.70
2022-10-13T15:33:48.410Z,16.70
2022-10-13T15:36:15.468Z,16.70
2022-10-13T15:38:42.485Z,16.70
2022-10-13T15:41:09.667Z,16.60
2022-10-13T15:43:37.009Z,16.50
2022-10-13T15:46:05.262Z,16.50
2022-10-13T15:48:32.294Z,16.40
2022-10-13T15:50:59.314Z,16.30
2022-10-13T15:53:26.361Z,16.30
2022-10-13T15:55:53.421Z,16.30
2022-10-13T15:58:20.455Z,16.20
2022-10-13T16:00:47.527Z,16.10
2022-10-13T16:03:15.461Z,16.20
2022-10-13T16:05:42.810Z,16.20
2022-10-13T16:08:09.864Z,16.10
2022-10-13T16:10:41.031Z,16.10
2022-10-13T16:13:08.320Z,16.00
2022-10-13T16:15:35.326Z,15.90
2022-10-13T16:18:02.615Z,15.80
2022-10-13T16:20:34.417Z,15.80
2022-10-13T16:23:01.844Z,15.70
2022-10-13T16:25:29.448Z,15.60
2022-10-13T16:27:56.525Z,15.60
2022-10-13T16:30:23.526Z,15.40
2022-10-13T16:32:50.603Z,15.40
2022-10-13T16:35:17.607Z,15.30
2022-10-13T16:37:44.643Z,15.20
2022-10-13T16:40:11.694Z,15.20
2022-10-13T16:42:38.800Z,15.20
2022-10-13T16:45:06.311Z,15.20
2022-10-13T16:47:33.315Z,15.20
2022-10-13T16:50:00.450Z,15.10
2022-10-13T16:52:27.506Z,15.00
2022-10-13T16:54:54.596Z,15.10
2022-10-13T16:57:21.843Z,15.10
2022-10-13T16:59:49.661Z,15.00
2022-10-13T17:02:16.729Z,15.00
2022-10-13T17:04:43.814Z,14.90
2022-10-13T17:07:10.867Z,14.90
2022-10-13T17:09:37.939Z,14.90
2022-10-13T17:12:05.188Z,14.80
2022-10-13T17:14:32.191Z,14.80
2022-10-13T17:16:59.217Z,14.70
2022-10-13T17:19:26.387Z,14.70
2022-10-13T17:21:53.531Z,14.60
2022-10-13T17:24:20.566Z,14.60
2022-10-13T17:26:48.787Z,14.60
2022-10-13T17:29:15.818Z,14.60
2022-10-13T17:31:42.817Z,14.60
2022-10-13T17:34:09.858Z,14.60
2022-10-13T17:36:37.001Z,14.60
2022-10-13T17:39:09.855Z,14.60
2022-10-13T17:41:39.700Z,14.50
2022-10-13T17:44:06.781Z,14.50
2022-10-13T17:46:38.760Z,14.50
2022-10-13T17:49:06.559Z,14.50
2022-10-13T17:51:33.602Z,14.40
2022-10-13T17:54:00.858Z,14.30
2022-10-13T17:56:28.278Z,14.30
2022-10-13T17:58:55.654Z,14.20
2022-10-13T18:01:24.413Z,14.30
2022-10-13T18:03:52.539Z,14.20
2022-10-13T18:06:22.362Z,14.10
2022-10-13T18:08:50.664Z,14.10
2022-10-13T18:11:18.331Z,14.00
2022-10-13T18:13:45.393Z,14.00
2022-10-13T18:16:14.789Z,14.00
2022-10-13T18:18:43.645Z,13.90
2022-10-13T18:21:11.200Z,13.90
2022-10-13T18:23:38.333Z,13.80
2022-10-13T18:26:06.389Z,13.80
2022-10-13T18:28:34.102Z,13.80
2022-10-13T18:31:08.393Z,13.70
2022-10-13T18:33:35.422Z,13.70
2022-10-13T18:36:10.965Z,13.60
2022-10-13T18:38:37.987Z,13.50
2022-10-13T18:41:05.111Z,13.50
2022-10-13T18:43:32.130Z,13.40
2022-10-13T18:46:02.336Z,13.30
2022-10-13T18:48:29.543Z,13.30
2022-10-13T18:50:56.626Z,13.30
2022-10-13T18:53:25.341Z,13.20
2022-10-13T18:56:00.107Z,13.20
2022-10-13T18:58:27.146Z,13.10
2022-10-13T19:00:58.293Z,13.10
2022-10-13T19:03:25.504Z,13.00
2022-10-13T19:05:52.530Z,13.00
2022-10-13T19:08:19.526Z,13.00
2022-10-13T19:10:46.548Z,13.00
2022-10-13T19:13:13.744Z,12.90
2022-10-13T19:15:40.755Z,12.90
2022-10-13T19:18:08.597Z,12.90
2022-10-13T19:20:35.678Z,12.90
2022-10-13T19:23:04.577Z,12.90
2022-10-13T19:25:31.738Z,12.90
2022-10-13T19:27:58.871Z,12.80
2022-10-13T19:30:26.428Z,12.80
2022-10-13T19:32:53.782Z,12.80
2022-10-13T19:35:20.786Z,12.80
2022-10-13T19:37:47.824Z,12.80
2022-10-13T19:40:14.878Z,12.80
2022-10-13T19:42:41.898Z,12.80
2022-10-13T19:45:09.715Z,12.80
2022-10-13T19:47:36.866Z,12.80
2022-10-13T19:50:03.979Z,12.80
2022-10-13T19:52:31.120Z,12.80
2022-10-13T19:54:58.263Z,12.70
2022-10-13T19:57:25.279Z,12.80
2022-10-13T19:59:52.292Z,12.80
2022-10-13T20:02:19.309Z,12.70
2022-10-13T20:04:46.434Z,12.70
2022-10-13T20:07:13.466Z,12.70
2022-10-13T20:09:40.768Z,12.70
2022-10-13T20:12:07.847Z,12.60
2022-10-13T20:14:40.538Z,12.60
2022-10-13T20:17:07.565Z,12.60
2022-10-13T20:19:34.658Z,12.50
2022-10-13T20:22:01.865Z,12.50
2022-10-13T20:24:28.909Z,12.50
2022-10-13T20:26:56.434Z,12.50
2022-10-13T20:29:24.830Z,12.60
2022-10-13T20:31:51.851Z,12.60
2022-10-13T20:34:18.918Z,12.60
2022-10-13T20:36:45.992Z,12.60
2022-10-13T20:39:13.019Z,12.70
2022-10-13T20:41:40.118Z,12.70
2022-10-13T20:44:07.122Z,12.70
2022-10-13T20:46:34.474Z,12.70
2022-10-13T20:49:16.824Z,12.60
2022-10-13T20:51:43.929Z,12.70
2022-10-13T20:54:11.462Z,12.70
2022-10-13T20:56:38.523Z,12.70
2022-10-13T20:59:06.245Z,12.70
2022-10-13T21:01:33.337Z,12.80
2022-10-13T21:04:00.360Z,12.80
2022-10-13T21:06:27.397Z,12.80
2022-10-13T21:08:56.452Z,12.80
2022-10-13T21:11:23.581Z,12.80
2022-10-13T21:13:50.832Z,12.80
2022-10-13T21:16:21.654Z,12.80
2022-10-13T21:18:49.355Z,12.80
2022-10-13T21:21:17.351Z,12.80
2022-10-13T21:23:45.997Z,12.80
2022-10-13T21:26:20.410Z,12.80
2022-10-13T21:28:48.796Z,12.80
2022-10-13T21:31:16.123Z,12.70
2022-10-13T21:33:43.276Z,12.80
2022-10-13T21:36:11.352Z,12.80
2022-10-13T21:38:41.313Z,12.80
2022-10-13T21:41:08.883Z,12.70
2022-10-13T21:43:35.895Z,12.70
2022-10-13T21:46:09.833Z,12.70
2022-10-13T21:48:39.079Z,12.70
2022-10-13T21:51:20.257Z,12.60
2022-10-13T21:53:47.926Z,12.60
2022-10-13T21:56:14.929Z,12.60
2022-10-13T21:58:41.952Z,12.60
2022-10-13T22:01:09.162Z,12.60
2022-10-13T22:03:36.268Z,12.50
2022-10-13T22:06:07.330Z,12.50
2022-10-13T22:08:38.918Z,12.50
2022-10-13T22:11:14.434Z,12.40
2022-10-13T22:13:41.444Z,12.40
2022-10-13T22:16:09.475Z,12.30
2022-10-13T22:18:41.267Z,12.30
2022-10-13T22:21:08.889Z,12.30
2022-10-13T22:23:35.922Z,12.30
2022-10-13T22:26:02.950Z,12.30
2022-10-13T22:28:34.737Z,12.20
2022-10-13T22:31:07.559Z,12.20
2022-10-13T22:33:34.985Z,12.20
2022-10-13T22:36:08.897Z,12.10
2022-10-13T22:38:35.961Z,12.10
2022-10-13T22:41:04.600Z,12.10
2022-10-13T22:43:31.694Z,12.00
2022-10-13T22:46:11.522Z,12.00
2022-10-13T22:48:40.854Z,12.00
2022-10-13T22:51:09.436Z,11.90
2022-10-13T22:53:36.473Z,11.90
2022-10-13T22:56:07.328Z,11.80
2022-10-13T22:58:36.179Z,11.80
2022-10-13T23:01:10.801Z,11.80
2022-10-13T23:03:38.112Z,11.80
2022-10-13T23:06:05.746Z,11.80
2022-10-13T23:08:32.934Z,11.80
2022-10-13T23:10:59.997Z,11.90
2022-10-13T23:13:27.119Z,11.90
2022-10-13T23:16:06.834Z,11.90
2022-10-13T23:18:38.046Z,12.00
2022-10-13T23:21:08.858Z,12.10
2022-10-13T23:23:35.950Z,12.10
2022-10-13T23:26:03.811Z,12.20
2022-10-13T23:28:31.548Z,12.20
2022-10-13T23:31:01.997Z,12.20
2022-10-13T23:33:29.037Z,12.20
2022-10-13T23:35:59.544Z,12.20
2022-10-13T23:38:26.583Z,12.30
2022-10-13T23:40:53.599Z,12.30
2022-10-13T23:43:20.968Z,12.30
2022-10-13T23:45:48.005Z,12.40
2022-10-13T23:48:15.323Z,12.40
2022-10-13T23:50:42.438Z,12.40
2022-10-13T23:53:09.450Z,12.40
2022-10-13T23:55:37.299Z,12.40
2022-10-13T23:58:04.310Z,12.30
